createdAt,value
2022-10-31T00:01:36.365Z,5.45
2022-10-31T00:04:04.885Z,5.57
2022-10-31T00:06:32.763Z,5.40
2022-10-31T00:09:02.274Z,5.00
2022-10-31T00:11:30.283Z,5.22
2022-10-31T00:13:59.147Z,4.82
2022-10-31T00:16:27.846Z,4.80
2022-10-31T00:19:01.778Z,4.40
2022-10-31T00:21:30.624Z,4.70
2022-10-31T00:23:59.823Z,4.72
2022-10-31T00:26:32.259Z,4.07
2022-10-31T00:29:01.378Z,4.25
2022-10-31T00:31:29.872Z,4.05
2022-10-31T00:33:58.977Z,4.68
2022-10-31T00:36:28.256Z,3.95
2022-10-31T00:38:56.217Z,4.15
2022-10-31T00:41:25.453Z,4.00
2022-10-31T00:43:53.290Z,4.35
2022-10-31T00:46:21.138Z,4.05
2022-10-31T00:48:51.854Z,4.65
2022-10-31T00:51:19.708Z,3.92
2022-10-31T00:53:47.442Z,3.72
2022-10-31T00:56:15.608Z,4.40
2022-10-31T00:58:43.836Z,4.57
2022-10-31T01:01:11.762Z,4.57
2022-10-31T01:03:39.931Z,5.00
2022-10-31T01:06:14.091Z,4.57
2022-10-31T01:08:42.165Z,3.88
2022-10-31T01:11:16.309Z,4.13
2022-10-31T01:13:46.072Z,4.32
2022-10-31T01:16:20.809Z,4.35
2022-10-31T01:18:48.858Z,4.38
2022-10-31T01:21:22.323Z,4.88
2022-10-31T01:23:51.365Z,4.50
2022-10-31T01:26:21.975Z,4.38
2022-10-31T01:28:53.628Z,4.85
2022-10-31T01:31:23.473Z,4.43
2022-10-31T01:33:51.316Z,4.50
2022-10-31T01:36:29.727Z,4.53
2022-10-31T01:39:00.295Z,5.40
2022-10-31T01:41:31.224Z,4.35
2022-10-31T01:44:23.769Z,4.05
2022-10-31T01:47:00.227Z,4.20
2022-10-31T01:49:39.916Z,4.88
2022-10-31T01:52:13.412Z,4.63
2022-10-31T01:54:46.507Z,4.97
2022-10-31T01:57:16.537Z,4.72
2022-10-31T01:59:48.775Z,4.30
2022-10-31T02:02:19.913Z,4.38
2022-10-31T02:04:48.946Z,5.82
2022-10-31T02:07:27.219Z,4.53
2022-10-31T02:09:58.299Z,4.80
2022-10-31T02:12:26.686Z,4.45
2022-10-31T02:15:01.172Z,5.22
2022-10-31T02:17:31.384Z,4.47
2022-10-31T02:20:06.763Z,4.68
2022-10-31T02:23:01.734Z,5.20
2022-10-31T02:25:47.431Z,5.50
2022-10-31T02:28:40.365Z,5.40
2022-10-31T02:31:29.986Z,5.18
2022-10-31T02:34:04.082Z,4.40
2022-10-31T02:36:48.348Z,4.90
2022-10-31T02:39:22.159Z,5.43
2022-10-31T02:42:08.749Z,5.05
2022-10-31T02:44:59.950Z,5.07
2022-10-31T02:47:38.006Z,6.13
2022-10-31T02:50:06.397Z,5.68
2022-10-31T02:52:36.172Z,5.93
2022-10-31T02:55:37.686Z,5.70
2022-10-31T02:58:11.372Z,5.90
2022-10-31T03:01:01.329Z,5.22
2022-10-31T03:03:37.365Z,6.03
2022-10-31T03:06:15.124Z,6.28
2022-10-31T03:08:56.893Z,5.43
2022-10-31T03:11:32.567Z,5.50
2022-10-31T03:14:32.112Z,6.07
2022-10-31T03:17:06.847Z,5.05
2022-10-31T03:19:40.394Z,5.63
2022-10-31T03:22:31.043Z,5.68
2022-10-31T03:25:04.583Z,6.07
2022-10-31T03:27:36.839Z,5.82
2022-10-31T03:30:19.647Z,5.95
2022-10-31T03:33:03.601Z,6.20
2022-10-31T03:35:37.057Z,5.10
2022-10-31T03:38:07.854Z,5.95
2022-10-31T03:40:38.897Z,5.97
2022-10-31T03:43:11.929Z,5.57
2022-10-31T03:45:45.350Z,4.80
2022-10-31T03:48:16.669Z,4.68
2022-10-31T03:51:00.004Z,4.95
2022-10-31T03:53:39.602Z,5.65
2022-10-31T03:56:13.953Z,4.97
2022-10-31T03:58:50.258Z,5.03
2022-10-31T04:01:21.039Z,5.05
2022-10-31T04:03:50.345Z,4.93
2022-10-31T04:06:22.784Z,5.68
2022-10-31T04:08:59.171Z,5.60
2022-10-31T04:11:32.853Z,5.40
2022-10-31T04:14:29.217Z,5.80
2022-10-31T04:16:58.708Z,6.10
2022-10-31T04:19:35.212Z,5.47
2022-10-31T04:22:03.316Z,5.35
2022-10-31T04:24:31.374Z,5.50
2022-10-31T04:26:59.766Z,5.05
2022-10-31T04:29:28.942Z,6.45
2022-10-31T04:31:57.302Z,5.38
2022-10-31T04:34:25.227Z,6.50
2022-10-31T04:36:53.168Z,5.78
2022-10-31T04:39:24.235Z,5.75
2022-10-31T04:42:14.624Z,6.25
2022-10-31T04:44:42.601Z,5.15
2022-10-31T04:47:10.430Z,5.82
2022-10-31T04:49:38.367Z,5.30
2022-10-31T04:52:07.141Z,5.93
2022-10-31T04:54:35.022Z,4.70
2022-10-31T04:57:21.405Z,5.45
2022-10-31T04:59:50.172Z,5.50
2022-10-31T05:02:17.956Z,6.00
2022-10-31T05:04:51.960Z,5.80
2022-10-31T05:07:20.171Z,5.38
2022-10-31T05:09:47.991Z,5.78
2022-10-31T05:12:15.794Z,5.22
2022-10-31T05:15:02.491Z,5.63
2022-10-31T05:17:59.769Z,5.88
2022-10-31T05:20:46.084Z,6.90
2022-10-31T05:23:23.729Z,5.82
2022-10-31T05:25:51.752Z,5.85
2022-10-31T05:28:19.585Z,5.38
2022-10-31T05:30:47.470Z,6.85
2022-10-31T05:33:17.293Z,4.93
2022-10-31T05:36:04.075Z,6.30
2022-10-31T05:38:43.334Z,5.85
2022-10-31T05:41:31.407Z,5.70
2022-10-31T05:44:22.340Z,6.68
2022-10-31T05:47:09.944Z,6.97
2022-10-31T05:49:56.538Z,5.95
2022-10-31T05:52:39.439Z,5.63
2022-10-31T05:55:22.655Z,6.38
2022-10-31T05:58:12.245Z,6.13
2022-10-31T06:00:42.984Z,6.10
2022-10-31T06:03:12.320Z,6.47
2022-10-31T06:05:52.268Z,6.95
2022-10-31T06:08:25.616Z,6.22
2022-10-31T06:10:55.235Z,5.65
2022-10-31T06:13:42.965Z,6.47
2022-10-31T06:16:18.108Z,6.95
2022-10-31T06:18:49.528Z,6.97
2022-10-31T06:21:19.072Z,6.90
2022-10-31T06:23:49.658Z,6.85
2022-10-31T06:26:37.415Z,6.95
2022-10-31T06:29:05.385Z,7.20
2022-10-31T06:32:02.323Z,8.13
2022-10-31T06:34:31.694Z,7.43
2022-10-31T06:36:59.703Z,6.38
2022-10-31T06:39:28.889Z,6.38
2022-10-31T06:41:56.941Z,7.47
2022-10-31T06:44:25.752Z,6.53
2022-10-31T06:46:56.989Z,6.90
2022-10-31T06:49:45.102Z,6.13
2022-10-31T06:52:16.476Z,6.55
2022-10-31T06:54:44.301Z,7.47
2022-10-31T06:57:12.055Z,6.68
2022-10-31T06:59:40.838Z,6.63
2022-10-31T07:02:28.921Z,6.82
2022-10-31T07:04:57.710Z,6.68
2022-10-31T07:07:25.624Z,6.68
2022-10-31T07:09:53.453Z,7.13
2022-10-31T07:12:31.854Z,6.22
2022-10-31T07:15:00.381Z,7.20
2022-10-31T07:17:30.044Z,6.57
2022-10-31T07:20:00.879Z,6.43
2022-10-31T07:22:36.778Z,7.15
2022-10-31T07:25:07.264Z,6.88
2022-10-31T07:27:58.781Z,6.25
2022-10-31T07:30:26.878Z,7.05
2022-10-31T07:32:57.434Z,6.30
2022-10-31T07:35:33.985Z,6.20
2022-10-31T07:38:09.774Z,6.35
2022-10-31T07:40:37.782Z,6.97
2022-10-31T07:43:08.845Z,7.10
2022-10-31T07:46:12.640Z,6.18
2022-10-31T07:49:12.828Z,6.28
2022-10-31T07:51:59.016Z,6.50
2022-10-31T07:54:26.796Z,6.28
2022-10-31T07:56:55.298Z,6.55
2022-10-31T07:59:26.990Z,6.13
2022-10-31T08:01:55.469Z,6.65
2022-10-31T08:04:32.316Z,6.65
2022-10-31T08:07:37.730Z,7.03
2022-10-31T08:10:08.296Z,7.10
2022-10-31T08:12:36.698Z,7.88
2022-10-31T08:15:08.959Z,8.18
2022-10-31T08:17:37.928Z,7.22
2022-10-31T08:20:06.736Z,9.77
2022-10-31T08:22:42.889Z,9.57
2022-10-31T08:25:12.164Z,9.32
2022-10-31T08:27:40.426Z,8.40
2022-10-31T08:30:13.836Z,9.32
2022-10-31T08:33:15.144Z,9.85
2022-10-31T08:36:01.633Z,8.90
2022-10-31T08:38:48.711Z,9.13
2022-10-31T08:41:17.815Z,8.85
2022-10-31T08:43:46.296Z,7.05
2022-10-31T08:46:14.550Z,8.57
2022-10-31T08:48:44.794Z,9.02
2022-10-31T08:51:13.687Z,8.45
2022-10-31T08:53:41.514Z,8.32
2022-10-31T08:56:41.194Z,7.47
2022-10-31T08:59:25.906Z,8.05
2022-10-31T09:02:14.062Z,8.70
2022-10-31T09:04:41.904Z,8.73
2022-10-31T09:07:25.064Z,9.32
2022-10-31T09:09:54.405Z,9.70
2022-10-31T09:12:22.397Z,9.38
2022-10-31T09:15:03.111Z,9.20
2022-10-31T09:17:37.678Z,9.50
2022-10-31T09:20:46.149Z,10.13
2022-10-31T09:23:18.306Z,10.05
2022-10-31T09:25:50.785Z,10.77
2022-10-31T09:28:37.073Z,10.63
2022-10-31T09:31:24.936Z,11.35
2022-10-31T09:34:16.036Z,11.57
2022-10-31T09:37:02.851Z,11.73
2022-10-31T09:39:33.699Z,12.32
2022-10-31T09:42:29.889Z,12.32
2022-10-31T09:45:13.749Z,11.77
2022-10-31T09:47:41.795Z,12.95
2022-10-31T09:50:38.225Z,12.45
2022-10-31T09:53:36.380Z,12.35
2022-10-31T09:56:09.999Z,13.27
2022-10-31T09:58:43.661Z,13.68
2022-10-31T10:01:24.619Z,12.70
2022-10-31T10:03:57.883Z,11.27
2022-10-31T10:06:58.424Z,11.73
2022-10-31T10:09:45.575Z,13.85
2022-10-31T10:12:51.383Z,14.02
2022-10-31T10:15:45.693Z,12.50
2022-10-31T10:18:56.681Z,14.90
2022-10-31T10:21:33.277Z,14.57
2022-10-31T10:24:27.029Z,16.00
2022-10-31T10:27:20.711Z,12.90
2022-10-31T10:30:07.587Z,13.02
2022-10-31T10:35:32.451Z,14.40
2022-10-31T10:38:12.643Z,15.07
2022-10-31T10:40:41.497Z,14.30
2022-10-31T10:43:26.799Z,14.85
2022-10-31T10:46:39.790Z,13.85
2022-10-31T10:49:38.099Z,13.48
2022-10-31T10:52:44.748Z,14.30
2022-10-31T10:55:38.384Z,14.93
2022-10-31T10:58:11.010Z,14.25
2022-10-31T11:00:44.036Z,15.18
2022-10-31T11:03:12.319Z,14.90
2022-10-31T11:05:51.310Z,15.18
2022-10-31T11:08:32.678Z,14.27
2022-10-31T11:11:19.208Z,14.50
2022-10-31T11:13:50.448Z,14.43
2022-10-31T11:16:27.507Z,13.40
2022-10-31T11:19:06.302Z,14.20
2022-10-31T11:21:35.832Z,16.20
2022-10-31T11:24:12.509Z,15.77
2022-10-31T11:26:42.668Z,16.10
2022-10-31T11:29:26.030Z,14.48
2022-10-31T11:31:57.579Z,14.93
2022-10-31T11:34:25.381Z,15.45
2022-10-31T11:36:53.330Z,15.30
2022-10-31T11:39:25.854Z,13.80
2022-10-31T11:41:55.381Z,15.43
2022-10-31T11:44:29.320Z,12.90
2022-10-31T11:49:40.041Z,12.65
2022-10-31T11:52:14.001Z,13.25
2022-10-31T11:57:44.470Z,13.38
2022-10-31T12:00:30.754Z,13.00
2022-10-31T12:03:23.408Z,13.05
2022-10-31T12:06:00.113Z,12.95
2022-10-31T12:08:37.196Z,12.95
2022-10-31T12:11:29.559Z,13.80
2022-10-31T12:14:12.190Z,13.77
2022-10-31T12:16:47.167Z,12.65
2022-10-31T12:19:56.340Z,13.63
2022-10-31T12:22:48.593Z,14.80
2022-10-31T12:25:29.257Z,14.23
2022-10-31T12:28:32.664Z,15.25
2022-10-31T12:31:15.451Z,14.77
2022-10-31T12:34:12.259Z,14.80
2022-10-31T12:36:48.776Z,14.32
2022-10-31T12:39:41.523Z,15.13
2022-10-31T12:42:15.108Z,14.65
2022-10-31T12:44:53.337Z,15.73
2022-10-31T12:47:54.276Z,14.68
2022-10-31T12:50:48.561Z,16.10
2022-10-31T12:53:25.493Z,15.32
2022-10-31T12:56:13.592Z,14.57
2022-10-31T12:59:01.699Z,14.18
2022-10-31T13:01:40.799Z,16.13
2022-10-31T13:04:46.487Z,15.57
2022-10-31T13:07:26.655Z,14.52
2022-10-31T13:10:01.916Z,14.25
2022-10-31T13:12:34.825Z,14.00
2022-10-31T13:15:28.172Z,14.65
2022-10-31T13:18:00.616Z,14.93
2022-10-31T13:20:36.041Z,13.90
2022-10-31T13:23:48.526Z,13.50
2022-10-31T13:26:39.339Z,14.70
2022-10-31T13:29:36.063Z,13.77
2022-10-31T13:32:08.426Z,13.52
2022-10-31T13:34:44.409Z,14.32
2022-10-31T13:37:23.060Z,13.88
2022-10-31T13:39:53.689Z,14.98
2022-10-31T13:42:43.308Z,13.88
2022-10-31T13:45:22.344Z,13.73
2022-10-31T13:48:16.763Z,14.13
2022-10-31T13:51:10.419Z,13.98
2022-10-31T13:53:41.882Z,13.55
2022-10-31T13:56:11.919Z,14.23
2022-10-31T13:58:39.828Z,14.10
2022-10-31T14:01:23.789Z,14.13
2022-10-31T14:04:24.981Z,13.25
2022-10-31T14:07:10.633Z,13.68
2022-10-31T14:09:49.314Z,13.63
2022-10-31T14:12:26.671Z,14.10
2022-10-31T14:15:03.376Z,14.07
2022-10-31T14:17:40.158Z,13.27
2022-10-31T14:20:10.776Z,12.80
2022-10-31T14:22:42.863Z,13.90
2022-10-31T14:25:34.324Z,13.13
2022-10-31T14:28:21.449Z,11.98
2022-10-31T14:30:58.836Z,13.20
2022-10-31T14:33:29.238Z,15.38
2022-10-31T14:36:08.200Z,14.52
2022-10-31T14:38:59.803Z,13.93
2022-10-31T14:41:59.453Z,13.55
2022-10-31T14:44:44.054Z,13.82
2022-10-31T14:47:38.171Z,13.07
2022-10-31T14:50:41.386Z,13.93
2022-10-31T14:53:18.511Z,13.50
2022-10-31T14:55:50.513Z,13.43
2022-10-31T14:58:38.368Z,13.02
2022-10-31T15:01:06.809Z,13.65
2022-10-31T15:03:44.523Z,13.10
2022-10-31T15:06:24.225Z,13.90
2022-10-31T15:08:54.682Z,14.27
2022-10-31T15:11:25.888Z,13.52
2022-10-31T15:13:56.195Z,13.00
2022-10-31T15:16:26.853Z,13.18
2022-10-31T15:19:01.845Z,12.63
2022-10-31T15:21:30.390Z,12.35
2022-10-31T15:24:00.170Z,12.75
2022-10-31T15:26:36.483Z,11.93
2022-10-31T15:29:07.030Z,12.20
2022-10-31T15:31:34.961Z,11.85
2022-10-31T15:36:51.589Z,11.32
2022-10-31T15:39:20.174Z,11.75
2022-10-31T15:41:57.637Z,11.48
2022-10-31T15:44:31.987Z,10.73
2022-10-31T15:47:03.610Z,10.55
2022-10-31T15:49:41.072Z,11.38
2022-10-31T15:52:48.473Z,10.50
2022-10-31T15:55:19.712Z,11.38
2022-10-31T15:57:53.937Z,10.75
2022-10-31T16:00:42.570Z,11.05
2022-10-31T16:03:16.176Z,11.13
2022-10-31T16:05:49.624Z,11.35
2022-10-31T16:08:34.725Z,10.45
2022-10-31T16:11:08.653Z,10.85
2022-10-31T16:13:39.259Z,10.70
2022-10-31T16:19:06.927Z,11.27
2022-10-31T16:21:39.675Z,10.85
2022-10-31T16:24:29.291Z,10.52
2022-10-31T16:27:06.316Z,10.63
2022-10-31T16:29:35.749Z,10.38
2022-10-31T16:32:03.674Z,11.63
2022-10-31T16:34:31.625Z,11.05
2022-10-31T16:36:59.467Z,11.77
2022-10-31T16:39:27.271Z,10.95
2022-10-31T16:41:57.355Z,11.45
2022-10-31T16:44:27.201Z,11.02
2022-10-31T16:47:20.320Z,11.35
2022-10-31T16:49:51.547Z,9.75
2022-10-31T16:52:20.323Z,9.85
2022-10-31T16:54:49.023Z,10.93
2022-10-31T16:57:21.327Z,10.73
2022-10-31T16:59:55.143Z,10.57
2022-10-31T17:02:23.837Z,10.63
2022-10-31T17:04:55.618Z,11.43
2022-10-31T17:07:24.994Z,12.63
2022-10-31T17:09:53.147Z,11.68
2022-10-31T17:12:26.411Z,10.80
2022-10-31T17:14:54.773Z,12.10
2022-10-31T17:17:22.842Z,11.02
2022-10-31T17:19:50.778Z,12.57
2022-10-31T17:22:18.727Z,12.32
2022-10-31T17:24:46.640Z,12.75
2022-10-31T17:27:14.505Z,12.35
2022-10-31T17:29:42.697Z,12.73
2022-10-31T17:32:10.698Z,12.00
2022-10-31T17:34:38.698Z,11.68
2022-10-31T17:37:07.847Z,11.15
2022-10-31T17:39:35.626Z,11.20
2022-10-31T17:42:03.500Z,13.07
2022-10-31T17:44:31.398Z,11.73
2022-10-31T17:46:59.564Z,11.77
2022-10-31T17:49:27.677Z,13.10
2022-10-31T17:51:55.623Z,13.30
2022-10-31T17:54:23.577Z,11.98
2022-10-31T17:56:53.972Z,13.43
2022-10-31T17:59:22.102Z,13.15
2022-10-31T18:01:50.232Z,11.80
2022-10-31T18:04:18.316Z,12.32
2022-10-31T18:06:47.911Z,13.32
2022-10-31T18:09:16.772Z,13.50
2022-10-31T18:11:44.991Z,12.73
2022-10-31T18:14:14.033Z,13.93
2022-10-31T18:16:42.780Z,13.13
2022-10-31T18:19:16.220Z,14.57
2022-10-31T18:21:46.435Z,15.75
2022-10-31T18:24:14.109Z,14.13
2022-10-31T18:26:43.994Z,16.17
2022-10-31T18:29:12.580Z,15.15
2022-10-31T18:31:40.518Z,13.88
2022-10-31T18:34:08.189Z,13.18
2022-10-31T18:36:35.772Z,14.02
2022-10-31T18:39:03.445Z,14.18
2022-10-31T18:41:31.094Z,15.48
2022-10-31T18:44:02.768Z,14.38
2022-10-31T18:46:30.367Z,14.65
2022-10-31T18:48:58.062Z,13.57
2022-10-31T18:51:26.983Z,14.43
2022-10-31T18:53:58.309Z,14.07
2022-10-31T18:56:27.741Z,13.48
2022-10-31T18:58:55.591Z,12.38
2022-10-31T19:01:23.474Z,14.43
2022-10-31T19:03:55.748Z,12.77
2022-10-31T19:06:26.443Z,13.57
2022-10-31T19:08:59.982Z,14.75
2022-10-31T19:11:28.153Z,15.15
2022-10-31T19:13:58.397Z,13.00
2022-10-31T19:16:26.853Z,13.90
2022-10-31T19:18:56.264Z,14.15
2022-10-31T19:21:24.429Z,14.25
2022-10-31T19:23:54.180Z,14.00
2022-10-31T19:26:25.196Z,14.02
2022-10-31T19:28:53.210Z,14.88
2022-10-31T19:31:20.881Z,14.85
2022-10-31T19:33:48.570Z,15.20
2022-10-31T19:36:18.821Z,14.38
2022-10-31T19:38:49.030Z,14.68
2022-10-31T19:41:20.238Z,14.50
2022-10-31T19:43:48.487Z,15.20
2022-10-31T19:46:27.969Z,16.02
2022-10-31T19:49:06.008Z,14.32
2022-10-31T19:51:33.555Z,13.32
2022-10-31T19:54:01.489Z,14.25
2022-10-31T19:56:30.354Z,12.68
2022-10-31T19:58:59.894Z,14.82
2022-10-31T20:01:27.603Z,14.68
2022-10-31T20:03:55.338Z,14.55
2022-10-31T20:06:24.430Z,13.65
2022-10-31T20:08:52.523Z,13.57
2022-10-31T20:11:20.105Z,13.88
2022-10-31T20:13:47.752Z,12.70
2022-10-31T20:16:16.725Z,12.70
2022-10-31T20:18:45.105Z,11.63
2022-10-31T20:21:18.710Z,11.93
2022-10-31T20:23:47.764Z,12.45
2022-10-31T20:27:06.170Z,12.75
2022-10-31T20:29:34.565Z,12.35
2022-10-31T20:32:03.215Z,12.77
2022-10-31T20:34:31.082Z,13.15
2022-10-31T20:36:58.973Z,11.60
2022-10-31T20:39:26.709Z,13.23
2022-10-31T20:41:54.554Z,12.57
2022-10-31T20:44:23.159Z,11.43
2022-10-31T20:46:50.838Z,13.18
2022-10-31T20:49:18.717Z,11.98
2022-10-31T20:51:46.744Z,12.30
2022-10-31T20:54:16.681Z,13.95
2022-10-31T20:56:47.310Z,12.27
2022-10-31T20:59:17.806Z,11.95
2022-10-31T21:01:45.697Z,12.05
2022-10-31T21:04:13.562Z,13.18
2022-10-31T21:06:48.193Z,12.45
2022-10-31T21:09:19.091Z,11.80
2022-10-31T21:11:46.799Z,11.77
2022-10-31T21:14:16.050Z,11.07
2022-10-31T21:16:43.910Z,11.32
2022-10-31T21:19:13.071Z,12.95
2022-10-31T21:21:41.191Z,11.93
2022-10-31T21:24:15.747Z,11.57
2022-10-31T21:26:48.453Z,11.35
2022-10-31T21:29:17.724Z,12.30
2022-10-31T21:31:46.062Z,11.60
2022-10-31T21:34:14.222Z,10.98
2022-10-31T21:36:42.059Z,10.85
2022-10-31T21:39:10.610Z,11.10
2022-10-31T21:41:38.423Z,9.23
2022-10-31T21:44:06.604Z,11.20
2022-10-31T21:46:35.552Z,11.77
2022-10-31T21:49:06.430Z,11.68
2022-10-31T21:51:36.121Z,12.45
2022-10-31T21:54:22.628Z,11.20
2022-10-31T21:56:51.197Z,9.80
2022-10-31T21:59:18.840Z,10.50
2022-10-31T22:01:46.620Z,10.82
2022-10-31T22:04:14.900Z,9.90
2022-10-31T22:06:42.631Z,9.90
2022-10-31T22:09:12.905Z,9.52
2022-10-31T22:11:42.380Z,10.52
2022-10-31T22:14:14.762Z,10.30
2022-10-31T22:16:43.134Z,9.57
2022-10-31T22:19:13.409Z,10.23
2022-10-31T22:21:44.709Z,8.43
2022-10-31T22:24:13.212Z,10.10
2022-10-31T22:26:41.260Z,9.20
2022-10-31T22:29:15.847Z,8.60
2022-10-31T22:31:48.428Z,7.68
2022-10-31T22:34:19.137Z,8.50
2022-10-31T22:36:46.896Z,7.78
2022-10-31T22:39:15.066Z,7.75
2022-10-31T22:41:42.762Z,7.15
2022-10-31T22:44:10.720Z,8.18
2022-10-31T22:46:40.079Z,7.38
2022-10-31T22:49:11.173Z,6.50
2022-10-31T22:51:40.877Z,7.40
2022-10-31T22:54:13.273Z,6.95
2022-10-31T22:56:41.099Z,7.07
2022-10-31T22:59:13.719Z,6.85
2022-10-31T23:01:42.034Z,7.30
2022-10-31T23:06:43.023Z,6.63
2022-10-31T23:09:14.348Z,6.30
2022-10-31T23:11:42.323Z,6.82
2022-10-31T23:14:18.669Z,6.60
2022-10-31T23:16:53.174Z,6.35
2022-10-31T23:19:23.746Z,6.72
2022-10-31T23:21:57.785Z,7.05
2022-10-31T23:24:47.849Z,6.63
2022-10-31T23:27:21.684Z,6.68
2022-10-31T23:29:50.819Z,6.53
2022-10-31T23:32:27.308Z,7.80
2022-10-31T23:34:59.983Z,6.70
2022-10-31T23:37:30.498Z,7.72
2022-10-31T23:39:58.373Z,8.02
2022-10-31T23:42:27.376Z,8.00
2022-10-31T23:44:55.496Z,7.63
2022-10-31T23:47:23.981Z,7.30
2022-10-31T23:49:54.397Z,7.80
2022-10-31T23:52:22.085Z,7.90
2022-10-31T23:54:49.878Z,8.13
2022-10-31T23:57:17.737Z,7.70
2022-10-31T23:59:45.420Z,8.63
